createdAt,value
2024-02-19T00:04:37.442Z,1012.39
2024-02-19T00:10:21.696Z,1012.46
2024-02-19T00:16:06.068Z,1012.52
2024-02-19T00:21:49.992Z,1012.48
2024-02-19T00:27:33.945Z,1012.5
2024-02-19T00:33:18.916Z,1012.56
2024-02-19T00:39:02.677Z,1012.56
2024-02-19T00:44:49.430Z,1012.55
2024-02-19T00:50:33.198Z,1012.6
2024-02-19T00:56:16.930Z,1012.42
2024-02-19T01:02:01.119Z,1012.51
2024-02-19T01:07:44.907Z,1012.53
2024-02-19T01:13:28.583Z,1012.55
2024-02-19T01:19:12.703Z,1012.54
2024-02-19T01:24:56.912Z,1012.55
2024-02-19T01:30:40.626Z,1012.67
2024-02-19T01:36:24.475Z,1012.67
2024-02-19T01:42:08.164Z,1012.68
2024-02-19T01:47:53.035Z,1012.69
2024-02-19T01:53:37.222Z,1012.79
2024-02-19T01:59:22.902Z,1012.76
2024-02-19T02:05:07.531Z,1012.77
2024-02-19T02:10:51.357Z,1012.73
2024-02-19T02:16:35.435Z,1012.7
2024-02-19T02:22:19.199Z,1012.65
2024-02-19T02:28:03.199Z,1012.72
2024-02-19T02:33:47.569Z,1012.73
2024-02-19T02:39:32.700Z,1012.69
2024-02-19T02:45:16.962Z,1012.65
2024-02-19T02:51:00.593Z,1012.6
2024-02-19T02:56:44.563Z,1012.53
2024-02-19T03:02:29.295Z,1012.5
2024-02-19T03:08:14.038Z,1012.56
2024-02-19T03:13:57.721Z,1012.56
2024-02-19T03:19:41.525Z,1012.55
2024-02-19T03:25:25.579Z,1012.57
2024-02-19T03:31:09.619Z,1012.52
2024-02-19T03:36:54.504Z,1012.48
2024-02-19T03:42:38.440Z,1012.45
2024-02-19T03:48:22.658Z,1012.53
2024-02-19T03:54:06.515Z,1012.51
2024-02-19T03:59:50.836Z,1012.51
2024-02-19T04:05:34.744Z,1012.48
2024-02-19T04:11:19.849Z,1012.57
2024-02-19T04:17:07.031Z,1012.62
2024-02-19T04:22:51.994Z,1012.71
2024-02-19T04:28:35.504Z,1012.72
2024-02-19T04:34:19.731Z,1012.7
2024-02-19T04:40:03.937Z,1012.69
2024-02-19T04:45:48.130Z,1012.75
2024-02-19T04:51:31.858Z,1012.66
2024-02-19T04:57:15.358Z,1012.62
2024-02-19T05:02:59.034Z,1012.64
2024-02-19T05:08:42.718Z,1012.65
2024-02-19T05:14:27.370Z,1012.65
2024-02-19T05:20:12.032Z,1012.79
2024-02-19T05:25:55.787Z,1012.83
2024-02-19T05:31:40.040Z,1012.79
2024-02-19T05:37:23.862Z,1012.84
2024-02-19T05:43:08.306Z,1012.79
2024-02-19T05:48:52.730Z,1012.78
2024-02-19T05:54:37.014Z,1012.9
2024-02-19T06:00:21.425Z,1012.84
2024-02-19T06:06:05.464Z,1012.91
2024-02-19T06:11:49.426Z,1012.91
2024-02-19T06:17:33.690Z,1012.85
2024-02-19T06:23:17.635Z,1012.91
2024-02-19T06:29:01.388Z,1012.9
2024-02-19T06:34:46.751Z,1013.05
2024-02-19T06:40:31.174Z,1013.13
2024-02-19T06:46:17.409Z,1013.05
2024-02-19T06:52:01.791Z,1013.11
2024-02-19T06:57:46.203Z,1013.02
2024-02-19T07:03:30.062Z,1012.94
2024-02-19T07:09:14.102Z,1012.88
2024-02-19T07:14:58.223Z,1012.9
2024-02-19T07:20:42.511Z,1012.86
2024-02-19T07:26:26.313Z,1012.83
2024-02-19T07:32:10.598Z,1012.89
2024-02-19T07:37:56.455Z,1012.93
2024-02-19T07:43:41.583Z,1012.8
2024-02-19T07:49:25.351Z,1012.71
2024-02-19T07:55:12.007Z,1012.48
2024-02-19T08:00:56.019Z,1012.65
2024-02-19T08:06:41.958Z,1012.86
2024-02-19T08:12:26.727Z,1012.7
2024-02-19T08:18:11.372Z,1012.51
2024-02-19T08:23:56.557Z,1012.52
2024-02-19T08:29:41.385Z,1012.58
2024-02-19T08:35:25.373Z,1012.36
2024-02-19T08:41:09.645Z,1012.23
2024-02-19T08:46:53.264Z,1012.53
2024-02-19T08:52:37.068Z,1012.59
2024-02-19T08:58:20.938Z,1012.84
2024-02-19T09:04:05.269Z,1012.86
2024-02-19T09:09:49.298Z,1012.87
2024-02-19T09:15:33.281Z,1012.95
2024-02-19T09:21:17.300Z,1012.99
2024-02-19T09:27:03.652Z,1013.11
2024-02-19T09:32:49.771Z,1013.07
2024-02-19T09:38:33.489Z,1012.98
2024-02-19T09:44:17.455Z,1013.13
2024-02-19T09:50:03.170Z,1013.03
2024-02-19T09:55:47.696Z,1013.05
2024-02-19T10:01:31.678Z,1013.05
2024-02-19T10:07:17.707Z,1013.08
2024-02-19T10:13:02.397Z,1013.1
2024-02-19T10:18:47.569Z,1013.1
2024-02-19T10:24:32.041Z,1013.03
2024-02-19T10:30:16.846Z,1013.05
2024-02-19T10:36:00.706Z,1013.02
2024-02-19T10:41:45.048Z,1013.04
2024-02-19T10:47:29.625Z,1013
2024-02-19T10:53:13.365Z,1012.9
2024-02-19T10:59:00.680Z,1012.81
2024-02-19T11:04:50.429Z,1012.71
2024-02-19T11:10:44.435Z,1012.71
2024-02-19T11:16:28.956Z,1012.59
2024-02-19T11:22:13.521Z,1012.49
2024-02-19T11:27:57.879Z,1012.46
2024-02-19T11:33:42.053Z,1012.44
2024-02-19T11:39:25.856Z,1012.41
2024-02-19T11:45:10.690Z,1012.39
2024-02-19T11:50:55.125Z,1012.27
2024-02-19T11:56:46.456Z,1012.31
2024-02-19T12:02:30.334Z,1012.18
2024-02-19T12:08:15.242Z,1012.13
2024-02-19T12:13:59.097Z,1012.14
2024-02-19T12:19:42.719Z,1011.87
2024-02-19T12:25:27.416Z,1011.79
2024-02-19T12:31:11.256Z,1011.72
2024-02-19T12:36:55.352Z,1011.58
2024-02-19T12:42:39.320Z,1011.47
2024-02-19T12:48:23.293Z,1011.36
2024-02-19T12:54:07.423Z,1011.32
2024-02-19T12:59:52.268Z,1011.19
2024-02-19T13:05:36.173Z,1011.22
2024-02-19T13:11:20.115Z,1011.15
2024-02-19T13:17:12.673Z,1011.31
2024-02-19T13:23:06.274Z,1011.4
2024-02-19T13:28:50.058Z,1011.31
2024-02-19T13:34:35.389Z,1011.32
2024-02-19T13:40:21.450Z,1011.26
2024-02-19T13:46:07.163Z,1011.22
2024-02-19T13:51:51.976Z,1011.14
2024-02-19T13:57:35.914Z,1011.12
2024-02-19T14:03:19.695Z,1011.12
2024-02-19T14:09:03.845Z,1010.96
2024-02-19T14:14:47.544Z,1010.98
2024-02-19T14:20:33.714Z,1010.98
2024-02-19T14:26:19.778Z,1010.94
2024-02-19T14:32:04.196Z,1010.93
2024-02-19T14:37:48.033Z,1010.93
2024-02-19T14:43:31.852Z,1010.87
2024-02-19T14:49:16.129Z,1010.83
2024-02-19T14:55:00.390Z,1010.85
2024-02-19T15:00:44.319Z,1010.8
2024-02-19T15:06:28.520Z,1010.82
2024-02-19T15:12:12.992Z,1010.83
2024-02-19T15:17:59.293Z,1010.78
2024-02-19T15:23:44.247Z,1010.82
2024-02-19T15:29:30.066Z,1010.82
2024-02-19T15:35:14.332Z,1010.8
2024-02-19T15:40:58.578Z,1010.76
2024-02-19T15:46:42.382Z,1010.79
2024-02-19T15:52:27.983Z,1010.76
2024-02-19T15:58:12.799Z,1010.87
2024-02-19T16:03:56.744Z,1010.9
2024-02-19T16:09:40.867Z,1010.9
2024-02-19T16:15:24.480Z,1010.92
2024-02-19T16:21:08.153Z,1010.96
2024-02-19T16:26:51.881Z,1010.91
2024-02-19T16:32:37.889Z,1010.96
2024-02-19T16:38:21.906Z,1011.03
2024-02-19T16:44:05.676Z,1011.11
2024-02-19T16:49:49.723Z,1011.05
2024-02-19T16:55:33.699Z,1011.07
2024-02-19T17:01:18.022Z,1011.09
2024-02-19T17:07:06.218Z,1011.25
2024-02-19T17:12:53.214Z,1011.29
2024-02-19T17:18:37.462Z,1011.41
2024-02-19T17:24:22.603Z,1011.54
2024-02-19T17:30:06.978Z,1011.55
2024-02-19T17:35:50.730Z,1011.58
2024-02-19T17:41:34.657Z,1011.68
2024-02-19T17:47:18.400Z,1011.64
2024-02-19T17:53:03.354Z,1011.64
2024-02-19T17:58:46.922Z,1011.63
2024-02-19T18:04:30.639Z,1011.67
2024-02-19T18:10:15.001Z,1011.68
2024-02-19T18:15:58.978Z,1011.79
2024-02-19T18:21:45.862Z,1011.8
2024-02-19T18:27:29.772Z,1011.93
2024-02-19T18:33:13.497Z,1011.96
2024-02-19T18:38:57.310Z,1012.04
2024-02-19T18:44:40.942Z,1012.05
2024-02-19T18:50:24.570Z,1012.14
2024-02-19T18:56:08.424Z,1012.08
2024-02-19T19:01:52.270Z,1012.07
2024-02-19T19:07:36.431Z,1012.15
2024-02-19T19:13:21.732Z,1012.17
2024-02-19T19:19:06.131Z,1012.29
2024-02-19T19:24:50.117Z,1012.38
2024-02-19T19:30:34.027Z,1012.48
2024-02-19T19:36:17.738Z,1012.46
2024-02-19T19:42:04.620Z,1012.47
2024-02-19T19:47:48.411Z,1012.47
2024-02-19T19:53:33.239Z,1012.44
2024-02-19T19:59:16.977Z,1012.41
2024-02-19T20:05:01.355Z,1012.43
2024-02-19T20:10:45.534Z,1012.41
2024-02-19T20:16:30.001Z,1012.45
2024-02-19T20:22:14.245Z,1012.4
2024-02-19T20:27:58.132Z,1012.44
2024-02-19T20:33:41.959Z,1012.51
2024-02-19T20:39:26.038Z,1012.48
2024-02-19T20:45:12.778Z,1012.65
2024-02-19T20:50:57.925Z,1012.65
2024-02-19T20:56:42.232Z,1012.7
2024-02-19T21:02:26.062Z,1012.82
2024-02-19T21:08:12.352Z,1012.81
2024-02-19T21:13:56.323Z,1012.82
2024-02-19T21:19:40.337Z,1012.85
2024-02-19T21:25:24.337Z,1012.85
2024-02-19T21:31:08.366Z,1012.82
2024-02-19T21:36:52.356Z,1012.87
2024-02-19T21:42:39.461Z,1012.9
2024-02-19T21:48:23.326Z,1012.87
2024-02-19T21:54:07.756Z,1012.88
2024-02-19T21:59:51.490Z,1012.88
2024-02-19T22:05:35.458Z,1012.92
2024-02-19T22:11:19.594Z,1012.84
2024-02-19T22:17:03.915Z,1012.82
2024-02-19T22:22:47.755Z,1012.89
2024-02-19T22:28:31.781Z,1012.94
2024-02-19T22:34:16.236Z,1012.94
2024-02-19T22:40:00.125Z,1012.98
2024-02-19T22:45:44.247Z,1012.97
2024-02-19T22:51:28.259Z,1012.96
2024-02-19T22:57:11.890Z,1012.9
2024-02-19T23:02:56.850Z,1012.97
2024-02-19T23:08:40.773Z,1012.93
2024-02-19T23:14:24.436Z,1012.97
2024-02-19T23:20:08.980Z,1013
2024-02-19T23:25:54.440Z,1013.11
2024-02-19T23:31:38.730Z,1013.08
2024-02-19T23:37:22.876Z,1013.11
2024-02-19T23:43:07.087Z,1013.09
2024-02-19T23:48:51.277Z,1013.16
2024-02-19T23:54:35.456Z,1013.19
